sensor_id;sensor_type;location;lat;lon;timestamp;P1;durP1;ratioP1;P2;durP2;ratioP2
40717;SDS011;26405;51.850;-2.246;2023-03-13T00:00:53;8.60;;;2.20;;
40717;SDS011;26405;51.850;-2.246;2023-03-13T00:03:19;7.68;;;2.40;;
40717;SDS011;26405;51.850;-2.246;2023-03-13T00:05:44;8.48;;;2.53;;
40717;SDS011;26405;51.850;-2.246;2023-03-13T00:08:10;7.45;;;2.40;;
40717;SDS011;26405;51.850;-2.246;2023-03-13T00:10:35;6.15;;;2.30;;
40717;SDS011;26405;51.850;-2.246;2023-03-13T00:13:01;9.23;;;2.60;;
40717;SDS011;26405;51.850;-2.246;2023-03-13T00:15:26;7.47;;;2.50;;
40717;SDS011;26405;51.850;-2.246;2023-03-13T00:17:51;8.10;;;2.58;;
40717;SDS011;26405;51.850;-2.246;2023-03-13T00:22:46;8.00;;;2.47;;
40717;SDS011;26405;51.850;-2.246;2023-03-13T00:25:11;9.05;;;2.10;;
40717;SDS011;26405;51.850;-2.246;2023-03-13T00:27:36;6.75;;;2.22;;
40717;SDS011;26405;51.850;-2.246;2023-03-13T00:30:02;9.50;;;2.55;;
40717;SDS011;26405;51.850;-2.246;2023-03-13T00:32:27;6.18;;;2.60;;
40717;SDS011;26405;51.850;-2.246;2023-03-13T00:34:52;7.05;;;2.35;;
40717;SDS011;26405;51.850;-2.246;2023-03-13T00:37:18;9.02;;;2.72;;
40717;SDS011;26405;51.850;-2.246;2023-03-13T00:39:43;8.03;;;2.63;;
40717;SDS011;26405;51.850;-2.246;2023-03-13T00:42:09;9.88;;;2.80;;
40717;SDS011;26405;51.850;-2.246;2023-03-13T00:44:34;8.07;;;2.50;;
40717;SDS011;26405;51.850;-2.246;2023-03-13T00:46:59;7.60;;;2.30;;
40717;SDS011;26405;51.850;-2.246;2023-03-13T00:49:25;8.00;;;2.40;;
40717;SDS011;26405;51.850;-2.246;2023-03-13T00:51:50;8.52;;;2.50;;
40717;SDS011;26405;51.850;-2.246;2023-03-13T00:54:15;9.52;;;2.40;;
40717;SDS011;26405;51.850;-2.246;2023-03-13T00:56:40;6.93;;;2.10;;
40717;SDS011;26405;51.850;-2.246;2023-03-13T00:59:06;8.80;;;2.55;;
40717;SDS011;26405;51.850;-2.246;2023-03-13T01:01:32;5.93;;;2.00;;
40717;SDS011;26405;51.850;-2.246;2023-03-13T01:03:59;8.25;;;2.40;;
40717;SDS011;26405;51.850;-2.246;2023-03-13T01:06:26;9.02;;;2.65;;
40717;SDS011;26405;51.850;-2.246;2023-03-13T01:08:51;8.52;;;2.42;;
40717;SDS011;26405;51.850;-2.246;2023-03-13T01:11:18;7.43;;;2.50;;
40717;SDS011;26405;51.850;-2.246;2023-03-13T01:13:44;7.30;;;2.42;;
40717;SDS011;26405;51.850;-2.246;2023-03-13T01:16:11;7.82;;;2.58;;
40717;SDS011;26405;51.850;-2.246;2023-03-13T01:18:37;7.43;;;2.10;;
40717;SDS011;26405;51.850;-2.246;2023-03-13T01:21:03;9.27;;;2.50;;
40717;SDS011;26405;51.850;-2.246;2023-03-13T01:23:29;7.38;;;2.45;;
40717;SDS011;26405;51.850;-2.246;2023-03-13T01:25:54;12.77;;;2.58;;
40717;SDS011;26405;51.850;-2.246;2023-03-13T01:28:20;8.55;;;2.60;;
40717;SDS011;26405;51.850;-2.246;2023-03-13T01:30:45;4.45;;;2.10;;
40717;SDS011;26405;51.850;-2.246;2023-03-13T01:33:10;7.00;;;2.40;;
40717;SDS011;26405;51.850;-2.246;2023-03-13T01:35:35;6.75;;;2.25;;
40717;SDS011;26405;51.850;-2.246;2023-03-13T01:38:01;8.73;;;2.38;;
40717;SDS011;26405;51.850;-2.246;2023-03-13T01:40:26;5.75;;;2.00;;
40717;SDS011;26405;51.850;-2.246;2023-03-13T01:42:52;7.35;;;1.90;;
40717;SDS011;26405;51.850;-2.246;2023-03-13T01:48:03;5.97;;;2.00;;
40717;SDS011;26405;51.850;-2.246;2023-03-13T01:50:28;6.90;;;2.22;;
40717;SDS011;26405;51.850;-2.246;2023-03-13T01:52:53;5.47;;;2.00;;
40717;SDS011;26405;51.850;-2.246;2023-03-13T01:55:19;6.00;;;2.25;;
40717;SDS011;26405;51.850;-2.246;2023-03-13T01:57:46;5.97;;;2.17;;
40717;SDS011;26405;51.850;-2.246;2023-03-13T02:00:16;5.70;;;2.05;;
40717;SDS011;26405;51.850;-2.246;2023-03-13T02:02:47;7.57;;;2.30;;
40717;SDS011;26405;51.850;-2.246;2023-03-13T02:05:13;7.03;;;1.90;;
40717;SDS011;26405;51.850;-2.246;2023-03-13T02:07:40;5.73;;;2.23;;
40717;SDS011;26405;51.850;-2.246;2023-03-13T02:12:35;4.85;;;2.03;;
40717;SDS011;26405;51.850;-2.246;2023-03-13T02:15:07;6.78;;;1.88;;
40717;SDS011;26405;51.850;-2.246;2023-03-13T02:17:33;4.03;;;1.80;;
40717;SDS011;26405;51.850;-2.246;2023-03-13T02:19:59;10.53;;;2.10;;
40717;SDS011;26405;51.850;-2.246;2023-03-13T02:22:33;4.40;;;2.17;;
40717;SDS011;26405;51.850;-2.246;2023-03-13T02:25:05;5.28;;;1.80;;
40717;SDS011;26405;51.850;-2.246;2023-03-13T02:27:34;5.70;;;1.80;;
40717;SDS011;26405;51.850;-2.246;2023-03-13T02:30:00;6.18;;;2.00;;
40717;SDS011;26405;51.850;-2.246;2023-03-13T02:32:26;4.93;;;1.75;;
40717;SDS011;26405;51.850;-2.246;2023-03-13T02:34:52;5.83;;;1.93;;
40717;SDS011;26405;51.850;-2.246;2023-03-13T02:37:18;3.90;;;1.80;;
40717;SDS011;26405;51.850;-2.246;2023-03-13T02:39:45;4.90;;;1.70;;
40717;SDS011;26405;51.850;-2.246;2023-03-13T02:42:12;3.42;;;1.80;;
40717;SDS011;26405;51.850;-2.246;2023-03-13T02:44:38;5.70;;;1.83;;
40717;SDS011;26405;51.850;-2.246;2023-03-13T02:47:04;4.78;;;1.73;;
40717;SDS011;26405;51.850;-2.246;2023-03-13T02:49:29;4.15;;;1.90;;
40717;SDS011;26405;51.850;-2.246;2023-03-13T02:51:56;4.35;;;1.50;;
40717;SDS011;26405;51.850;-2.246;2023-03-13T02:56:48;3.60;;;1.60;;
40717;SDS011;26405;51.850;-2.246;2023-03-13T02:59:15;2.25;;;1.50;;
40717;SDS011;26405;51.850;-2.246;2023-03-13T03:01:40;4.22;;;1.77;;
40717;SDS011;26405;51.850;-2.246;2023-03-13T03:04:05;3.90;;;1.67;;
40717;SDS011;26405;51.850;-2.246;2023-03-13T03:06:30;2.25;;;1.35;;
40717;SDS011;26405;51.850;-2.246;2023-03-13T03:08:56;2.67;;;1.50;;
40717;SDS011;26405;51.850;-2.246;2023-03-13T03:11:21;2.92;;;1.40;;
40717;SDS011;26405;51.850;-2.246;2023-03-13T03:13:47;2.97;;;1.60;;
40717;SDS011;26405;51.850;-2.246;2023-03-13T03:16:12;3.25;;;1.52;;
40717;SDS011;26405;51.850;-2.246;2023-03-13T03:18:39;3.20;;;1.60;;
40717;SDS011;26405;51.850;-2.246;2023-03-13T03:21:04;5.43;;;1.90;;
40717;SDS011;26405;51.850;-2.246;2023-03-13T03:23:33;2.10;;;1.45;;
40717;SDS011;26405;51.850;-2.246;2023-03-13T03:25:58;4.53;;;1.58;;
40717;SDS011;26405;51.850;-2.246;2023-03-13T03:28:24;4.13;;;1.60;;
40717;SDS011;26405;51.850;-2.246;2023-03-13T03:30:49;3.83;;;1.67;;
40717;SDS011;26405;51.850;-2.246;2023-03-13T03:33:14;3.03;;;1.27;;
40717;SDS011;26405;51.850;-2.246;2023-03-13T03:35:40;3.10;;;1.73;;
40717;SDS011;26405;51.850;-2.246;2023-03-13T03:38:05;4.05;;;1.30;;
40717;SDS011;26405;51.850;-2.246;2023-03-13T03:40:30;2.28;;;1.20;;
40717;SDS011;26405;51.850;-2.246;2023-03-13T03:42:55;2.58;;;1.10;;
40717;SDS011;26405;51.850;-2.246;2023-03-13T03:45:21;4.97;;;1.73;;
40717;SDS011;26405;51.850;-2.246;2023-03-13T03:47:46;2.58;;;1.38;;
40717;SDS011;26405;51.850;-2.246;2023-03-13T03:50:11;3.65;;;1.60;;
40717;SDS011;26405;51.850;-2.246;2023-03-13T03:52:37;3.80;;;1.70;;
40717;SDS011;26405;51.850;-2.246;2023-03-13T03:55:03;6.18;;;1.60;;
40717;SDS011;26405;51.850;-2.246;2023-03-13T03:57:28;5.57;;;1.90;;
40717;SDS011;26405;51.850;-2.246;2023-03-13T03:59:53;7.83;;;2.00;;
40717;SDS011;26405;51.850;-2.246;2023-03-13T04:02:18;5.47;;;2.03;;
40717;SDS011;26405;51.850;-2.246;2023-03-13T04:04:44;3.40;;;1.60;;
40717;SDS011;26405;51.850;-2.246;2023-03-13T04:07:09;9.88;;;2.30;;
40717;SDS011;26405;51.850;-2.246;2023-03-13T04:09:34;5.70;;;1.95;;
40717;SDS011;26405;51.850;-2.246;2023-03-13T04:12:00;8.23;;;2.05;;
40717;SDS011;26405;51.850;-2.246;2023-03-13T04:14:25;8.07;;;2.33;;
40717;SDS011;26405;51.850;-2.246;2023-03-13T04:16:50;7.40;;;2.37;;
40717;SDS011;26405;51.850;-2.246;2023-03-13T04:19:15;5.88;;;2.47;;
40717;SDS011;26405;51.850;-2.246;2023-03-13T04:21:40;7.97;;;2.30;;
40717;SDS011;26405;51.850;-2.246;2023-03-13T04:24:06;8.38;;;2.65;;
40717;SDS011;26405;51.850;-2.246;2023-03-13T04:26:31;10.88;;;2.38;;
40717;SDS011;26405;51.850;-2.246;2023-03-13T04:28:56;10.63;;;2.60;;
40717;SDS011;26405;51.850;-2.246;2023-03-13T04:31:22;12.45;;;2.83;;
40717;SDS011;26405;51.850;-2.246;2023-03-13T04:33:47;9.38;;;2.83;;
40717;SDS011;26405;51.850;-2.246;2023-03-13T04:36:12;11.15;;;2.60;;
40717;SDS011;26405;51.850;-2.246;2023-03-13T04:38:38;11.48;;;2.97;;
40717;SDS011;26405;51.850;-2.246;2023-03-13T04:41:03;15.05;;;3.30;;
40717;SDS011;26405;51.850;-2.246;2023-03-13T04:43:28;10.63;;;3.05;;
40717;SDS011;26405;51.850;-2.246;2023-03-13T04:45:53;10.73;;;2.83;;
40717;SDS011;26405;51.850;-2.246;2023-03-13T04:48:19;9.73;;;2.70;;
40717;SDS011;26405;51.850;-2.246;2023-03-13T04:50:45;9.68;;;2.40;;
40717;SDS011;26405;51.850;-2.246;2023-03-13T04:53:11;8.70;;;2.50;;
40717;SDS011;26405;51.850;-2.246;2023-03-13T04:55:36;9.70;;;2.80;;
40717;SDS011;26405;51.850;-2.246;2023-03-13T04:58:01;11.95;;;2.92;;
40717;SDS011;26405;51.850;-2.246;2023-03-13T05:00:26;13.40;;;3.20;;
40717;SDS011;26405;51.850;-2.246;2023-03-13T05:02:52;14.98;;;3.58;;
40717;SDS011;26405;51.850;-2.246;2023-03-13T05:05:17;14.98;;;3.63;;
40717;SDS011;26405;51.850;-2.246;2023-03-13T05:07:42;14.73;;;3.53;;
40717;SDS011;26405;51.850;-2.246;2023-03-13T05:10:08;11.85;;;2.95;;
40717;SDS011;26405;51.850;-2.246;2023-03-13T05:12:33;13.10;;;3.50;;
40717;SDS011;26405;51.850;-2.246;2023-03-13T05:14:58;15.43;;;3.50;;
40717;SDS011;26405;51.850;-2.246;2023-03-13T05:17:23;14.30;;;3.53;;
40717;SDS011;26405;51.850;-2.246;2023-03-13T05:19:49;16.37;;;3.70;;
40717;SDS011;26405;51.850;-2.246;2023-03-13T05:22:14;18.20;;;3.75;;
40717;SDS011;26405;51.850;-2.246;2023-03-13T05:24:39;15.93;;;3.55;;
40717;SDS011;26405;51.850;-2.246;2023-03-13T05:27:05;18.77;;;4.00;;
40717;SDS011;26405;51.850;-2.246;2023-03-13T05:29:30;15.32;;;3.83;;
40717;SDS011;26405;51.850;-2.246;2023-03-13T05:31:55;17.27;;;3.85;;
40717;SDS011;26405;51.850;-2.246;2023-03-13T05:34:20;18.80;;;3.72;;
40717;SDS011;26405;51.850;-2.246;2023-03-13T05:36:46;19.00;;;4.00;;
40717;SDS011;26405;51.850;-2.246;2023-03-13T05:39:11;15.10;;;4.10;;
40717;SDS011;26405;51.850;-2.246;2023-03-13T05:41:36;21.52;;;5.15;;
40717;SDS011;26405;51.850;-2.246;2023-03-13T05:44:01;20.98;;;4.88;;
40717;SDS011;26405;51.850;-2.246;2023-03-13T05:46:27;19.58;;;4.35;;
40717;SDS011;26405;51.850;-2.246;2023-03-13T05:48:52;15.95;;;4.13;;
40717;SDS011;26405;51.850;-2.246;2023-03-13T05:51:17;21.48;;;4.88;;
40717;SDS011;26405;51.850;-2.246;2023-03-13T05:53:43;20.50;;;4.68;;
40717;SDS011;26405;51.850;-2.246;2023-03-13T05:56:08;21.17;;;4.63;;
40717;SDS011;26405;51.850;-2.246;2023-03-13T05:58:33;20.80;;;4.53;;
40717;SDS011;26405;51.850;-2.246;2023-03-13T06:00:59;22.70;;;5.05;;
40717;SDS011;26405;51.850;-2.246;2023-03-13T06:03:24;25.15;;;5.30;;
40717;SDS011;26405;51.850;-2.246;2023-03-13T06:05:55;25.48;;;6.22;;
40717;SDS011;26405;51.850;-2.246;2023-03-13T06:08:20;22.45;;;5.40;;
40717;SDS011;26405;51.850;-2.246;2023-03-13T06:10:46;27.83;;;5.50;;
40717;SDS011;26405;51.850;-2.246;2023-03-13T06:13:11;23.10;;;5.40;;
40717;SDS011;26405;51.850;-2.246;2023-03-13T06:15:36;22.27;;;5.68;;
40717;SDS011;26405;51.850;-2.246;2023-03-13T06:18:01;20.00;;;5.28;;
40717;SDS011;26405;51.850;-2.246;2023-03-13T06:20:27;23.92;;;5.63;;
40717;SDS011;26405;51.850;-2.246;2023-03-13T06:22:52;24.20;;;5.32;;
40717;SDS011;26405;51.850;-2.246;2023-03-13T06:25:17;21.10;;;5.43;;
40717;SDS011;26405;51.850;-2.246;2023-03-13T06:27:42;27.27;;;6.53;;
40717;SDS011;26405;51.850;-2.246;2023-03-13T06:30:08;22.40;;;5.65;;
40717;SDS011;26405;51.850;-2.246;2023-03-13T06:32:34;22.30;;;5.57;;
40717;SDS011;26405;51.850;-2.246;2023-03-13T06:34:59;24.77;;;5.50;;
40717;SDS011;26405;51.850;-2.246;2023-03-13T06:37:25;22.92;;;5.88;;
40717;SDS011;26405;51.850;-2.246;2023-03-13T06:39:50;22.92;;;5.93;;
40717;SDS011;26405;51.850;-2.246;2023-03-13T06:42:15;23.50;;;5.78;;
40717;SDS011;26405;51.850;-2.246;2023-03-13T06:44:40;22.85;;;5.38;;
40717;SDS011;26405;51.850;-2.246;2023-03-13T06:47:06;25.63;;;5.80;;
40717;SDS011;26405;51.850;-2.246;2023-03-13T06:49:31;24.45;;;5.28;;
40717;SDS011;26405;51.850;-2.246;2023-03-13T06:51:57;24.40;;;6.30;;
40717;SDS011;26405;51.850;-2.246;2023-03-13T06:54:22;24.98;;;5.55;;
40717;SDS011;26405;51.850;-2.246;2023-03-13T06:56:48;21.42;;;5.53;;
40717;SDS011;26405;51.850;-2.246;2023-03-13T06:59:13;24.17;;;6.18;;
40717;SDS011;26405;51.850;-2.246;2023-03-13T07:01:38;24.33;;;5.70;;
40717;SDS011;26405;51.850;-2.246;2023-03-13T07:04:03;22.98;;;5.55;;
40717;SDS011;26405;51.850;-2.246;2023-03-13T07:06:29;25.02;;;5.45;;
40717;SDS011;26405;51.850;-2.246;2023-03-13T07:08:54;22.98;;;6.05;;
40717;SDS011;26405;51.850;-2.246;2023-03-13T07:11:19;25.73;;;6.30;;
40717;SDS011;26405;51.850;-2.246;2023-03-13T07:13:44;29.00;;;6.05;;
40717;SDS011;26405;51.850;-2.246;2023-03-13T07:16:11;24.17;;;5.65;;
40717;SDS011;26405;51.850;-2.246;2023-03-13T07:18:36;22.58;;;5.68;;
40717;SDS011;26405;51.850;-2.246;2023-03-13T07:21:02;23.67;;;5.32;;
40717;SDS011;26405;51.850;-2.246;2023-03-13T07:23:31;26.30;;;6.68;;
40717;SDS011;26405;51.850;-2.246;2023-03-13T07:25:58;24.42;;;5.80;;
40717;SDS011;26405;51.850;-2.246;2023-03-13T07:28:23;25.05;;;5.72;;
40717;SDS011;26405;51.850;-2.246;2023-03-13T07:30:49;23.95;;;5.25;;
40717;SDS011;26405;51.850;-2.246;2023-03-13T07:33:15;25.23;;;6.00;;
40717;SDS011;26405;51.850;-2.246;2023-03-13T07:35:46;27.67;;;6.13;;
40717;SDS011;26405;51.850;-2.246;2023-03-13T07:38:11;22.63;;;5.45;;
40717;SDS011;26405;51.850;-2.246;2023-03-13T07:40:36;23.63;;;5.95;;
40717;SDS011;26405;51.850;-2.246;2023-03-13T07:43:02;23.00;;;5.72;;
40717;SDS011;26405;51.850;-2.246;2023-03-13T07:45:27;21.98;;;5.28;;
40717;SDS011;26405;51.850;-2.246;2023-03-13T07:47:52;21.17;;;5.25;;
40717;SDS011;26405;51.850;-2.246;2023-03-13T07:50:18;22.98;;;5.55;;
40717;SDS011;26405;51.850;-2.246;2023-03-13T07:52:43;23.25;;;5.72;;
40717;SDS011;26405;51.850;-2.246;2023-03-13T07:55:08;24.17;;;6.05;;
40717;SDS011;26405;51.850;-2.246;2023-03-13T07:57:33;26.80;;;5.65;;
40717;SDS011;26405;51.850;-2.246;2023-03-13T07:59:59;23.17;;;5.15;;
40717;SDS011;26405;51.850;-2.246;2023-03-13T08:02:24;21.55;;;5.10;;
40717;SDS011;26405;51.850;-2.246;2023-03-13T08:04:52;22.52;;;5.68;;
40717;SDS011;26405;51.850;-2.246;2023-03-13T08:07:17;24.45;;;5.60;;
40717;SDS011;26405;51.850;-2.246;2023-03-13T08:09:42;20.88;;;5.72;;
40717;SDS011;26405;51.850;-2.246;2023-03-13T08:12:08;22.98;;;5.63;;
40717;SDS011;26405;51.850;-2.246;2023-03-13T08:14:33;23.80;;;6.40;;
40717;SDS011;26405;51.850;-2.246;2023-03-13T08:16:58;27.15;;;7.05;;
40717;SDS011;26405;51.850;-2.246;2023-03-13T08:19:24;24.92;;;6.72;;
40717;SDS011;26405;51.850;-2.246;2023-03-13T08:21:49;23.75;;;5.63;;
40717;SDS011;26405;51.850;-2.246;2023-03-13T08:24:14;24.90;;;6.07;;
40717;SDS011;26405;51.850;-2.246;2023-03-13T08:26:40;26.95;;;6.53;;
40717;SDS011;26405;51.850;-2.246;2023-03-13T08:29:09;24.88;;;6.32;;
40717;SDS011;26405;51.850;-2.246;2023-03-13T08:31:36;26.98;;;6.65;;
40717;SDS011;26405;51.850;-2.246;2023-03-13T08:34:02;28.30;;;7.00;;
40717;SDS011;26405;51.850;-2.246;2023-03-13T08:36:32;27.02;;;7.05;;
40717;SDS011;26405;51.850;-2.246;2023-03-13T08:38:58;30.17;;;7.22;;
40717;SDS011;26405;51.850;-2.246;2023-03-13T08:41:24;22.53;;;6.60;;
40717;SDS011;26405;51.850;-2.246;2023-03-13T08:43:51;25.45;;;6.97;;
40717;SDS011;26405;51.850;-2.246;2023-03-13T08:46:16;29.83;;;7.40;;
40717;SDS011;26405;51.850;-2.246;2023-03-13T08:48:42;27.15;;;6.32;;
40717;SDS011;26405;51.850;-2.246;2023-03-13T08:51:11;27.92;;;7.47;;
40717;SDS011;26405;51.850;-2.246;2023-03-13T08:53:37;30.42;;;7.22;;
40717;SDS011;26405;51.850;-2.246;2023-03-13T08:56:02;27.65;;;6.90;;
40717;SDS011;26405;51.850;-2.246;2023-03-13T08:58:28;35.08;;;8.65;;
40717;SDS011;26405;51.850;-2.246;2023-03-13T09:00:54;27.50;;;7.20;;
40717;SDS011;26405;51.850;-2.246;2023-03-13T09:03:19;26.90;;;6.65;;
40717;SDS011;26405;51.850;-2.246;2023-03-13T09:05:44;24.38;;;6.50;;
40717;SDS011;26405;51.850;-2.246;2023-03-13T09:08:12;26.77;;;6.13;;
40717;SDS011;26405;51.850;-2.246;2023-03-13T09:10:37;27.92;;;7.57;;
40717;SDS011;26405;51.850;-2.246;2023-03-13T09:13:02;28.45;;;6.75;;
40717;SDS011;26405;51.850;-2.246;2023-03-13T09:15:27;27.88;;;6.63;;
40717;SDS011;26405;51.850;-2.246;2023-03-13T09:17:53;27.35;;;6.50;;
40717;SDS011;26405;51.850;-2.246;2023-03-13T09:20:18;27.92;;;6.72;;
40717;SDS011;26405;51.850;-2.246;2023-03-13T09:22:44;27.02;;;6.30;;
40717;SDS011;26405;51.850;-2.246;2023-03-13T09:25:09;25.00;;;5.82;;
40717;SDS011;26405;51.850;-2.246;2023-03-13T09:27:34;27.00;;;6.35;;
40717;SDS011;26405;51.850;-2.246;2023-03-13T09:30:00;28.27;;;7.32;;
40717;SDS011;26405;51.850;-2.246;2023-03-13T09:32:25;27.45;;;6.28;;
40717;SDS011;26405;51.850;-2.246;2023-03-13T09:34:50;31.85;;;6.57;;
40717;SDS011;26405;51.850;-2.246;2023-03-13T09:37:15;29.25;;;6.38;;
40717;SDS011;26405;51.850;-2.246;2023-03-13T09:39:41;26.75;;;6.03;;
40717;SDS011;26405;51.850;-2.246;2023-03-13T09:42:13;29.13;;;5.97;;
40717;SDS011;26405;51.850;-2.246;2023-03-13T09:44:42;23.60;;;5.53;;
40717;SDS011;26405;51.850;-2.246;2023-03-13T09:49:41;26.65;;;6.68;;
40717;SDS011;26405;51.850;-2.246;2023-03-13T09:52:16;28.92;;;6.80;;
40717;SDS011;26405;51.850;-2.246;2023-03-13T09:54:51;26.73;;;6.72;;
40717;SDS011;26405;51.850;-2.246;2023-03-13T10:02:27;27.30;;;6.28;;
40717;SDS011;26405;51.850;-2.246;2023-03-13T10:05:04;29.15;;;7.55;;
40717;SDS011;26405;51.850;-2.246;2023-03-13T10:07:30;27.15;;;6.88;;
40717;SDS011;26405;51.850;-2.246;2023-03-13T10:09:55;28.42;;;6.75;;
40717;SDS011;26405;51.850;-2.246;2023-03-13T10:12:25;26.63;;;7.25;;
40717;SDS011;26405;51.850;-2.246;2023-03-13T10:14:53;32.33;;;8.32;;
40717;SDS011;26405;51.850;-2.246;2023-03-13T10:17:29;30.17;;;7.65;;
40717;SDS011;26405;51.850;-2.246;2023-03-13T10:19:56;30.48;;;7.82;;
40717;SDS011;26405;51.850;-2.246;2023-03-13T10:22:24;30.08;;;7.70;;
40717;SDS011;26405;51.850;-2.246;2023-03-13T10:24:52;31.80;;;8.45;;
40717;SDS011;26405;51.850;-2.246;2023-03-13T10:27:19;30.10;;;7.60;;
40717;SDS011;26405;51.850;-2.246;2023-03-13T10:29:44;30.13;;;8.27;;
40717;SDS011;26405;51.850;-2.246;2023-03-13T10:32:13;33.03;;;8.02;;
40717;SDS011;26405;51.850;-2.246;2023-03-13T10:37:11;34.03;;;8.48;;
40717;SDS011;26405;51.850;-2.246;2023-03-13T10:39:38;33.90;;;8.38;;
40717;SDS011;26405;51.850;-2.246;2023-03-13T10:42:45;31.05;;;8.43;;
40717;SDS011;26405;51.850;-2.246;2023-03-13T10:44:55;34.55;;;8.80;;
40717;SDS011;26405;51.850;-2.246;2023-03-13T10:47:21;35.90;;;8.60;;
40717;SDS011;26405;51.850;-2.246;2023-03-13T10:49:51;28.65;;;7.97;;
40717;SDS011;26405;51.850;-2.246;2023-03-13T10:55:04;34.45;;;8.38;;
40717;SDS011;26405;51.850;-2.246;2023-03-13T10:57:40;31.23;;;7.80;;
40717;SDS011;26405;51.850;-2.246;2023-03-13T11:02:46;31.30;;;8.23;;
40717;SDS011;26405;51.850;-2.246;2023-03-13T11:07:50;32.83;;;8.75;;
40717;SDS011;26405;51.850;-2.246;2023-03-13T11:10:17;33.00;;;7.70;;
40717;SDS011;26405;51.850;-2.246;2023-03-13T11:15:12;31.10;;;8.10;;
40717;SDS011;26405;51.850;-2.246;2023-03-13T11:17:39;30.67;;;7.85;;
40717;SDS011;26405;51.850;-2.246;2023-03-13T11:33:03;28.27;;;7.13;;
40717;SDS011;26405;51.850;-2.246;2023-03-13T11:35:40;31.92;;;7.88;;
40717;SDS011;26405;51.850;-2.246;2023-03-13T11:38:10;32.88;;;8.18;;
40717;SDS011;26405;51.850;-2.246;2023-03-13T11:43:05;29.52;;;7.78;;
40717;SDS011;26405;51.850;-2.246;2023-03-13T11:54:01;33.40;;;7.75;;
40717;SDS011;26405;51.850;-2.246;2023-03-13T11:56:40;34.90;;;7.43;;
40717;SDS011;26405;51.850;-2.246;2023-03-13T12:01:37;37.57;;;8.67;;
40717;SDS011;26405;51.850;-2.246;2023-03-13T12:04:46;34.25;;;8.45;;
40717;SDS011;26405;51.850;-2.246;2023-03-13T12:12:11;29.67;;;8.05;;
40717;SDS011;26405;51.850;-2.246;2023-03-13T12:14:51;28.73;;;7.32;;
40717;SDS011;26405;51.850;-2.246;2023-03-13T12:19:53;31.38;;;8.48;;
40717;SDS011;26405;51.850;-2.246;2023-03-13T12:24:59;30.02;;;8.07;;
40717;SDS011;26405;51.850;-2.246;2023-03-13T12:32:40;29.63;;;7.95;;
40717;SDS011;26405;51.850;-2.246;2023-03-13T12:37:41;33.00;;;8.48;;
40717;SDS011;26405;51.850;-2.246;2023-03-13T12:40:22;29.30;;;7.13;;
40717;SDS011;26405;51.850;-2.246;2023-03-13T12:43:03;30.52;;;7.05;;
40717;SDS011;26405;51.850;-2.246;2023-03-13T12:45:29;33.03;;;7.30;;
40717;SDS011;26405;51.850;-2.246;2023-03-13T12:58:40;33.50;;;8.30;;
40717;SDS011;26405;51.850;-2.246;2023-03-13T13:01:06;28.40;;;6.65;;
40717;SDS011;26405;51.850;-2.246;2023-03-13T13:03:39;28.98;;;6.57;;
40717;SDS011;26405;51.850;-2.246;2023-03-13T13:06:09;28.85;;;7.00;;
40717;SDS011;26405;51.850;-2.246;2023-03-13T13:13:44;29.73;;;7.50;;
40717;SDS011;26405;51.850;-2.246;2023-03-13T13:16:14;27.83;;;7.30;;
40717;SDS011;26405;51.850;-2.246;2023-03-13T13:18:42;30.77;;;7.75;;
40717;SDS011;26405;51.850;-2.246;2023-03-13T13:23:45;29.08;;;7.50;;
40717;SDS011;26405;51.850;-2.246;2023-03-13T13:28:58;28.45;;;7.65;;
40717;SDS011;26405;51.850;-2.246;2023-03-13T13:31:57;28.58;;;7.50;;
40717;SDS011;26405;51.850;-2.246;2023-03-13T13:36:56;29.52;;;7.15;;
40717;SDS011;26405;51.850;-2.246;2023-03-13T13:41:52;26.55;;;7.32;;
40717;SDS011;26405;51.850;-2.246;2023-03-13T13:44:25;28.20;;;6.78;;
40717;SDS011;26405;51.850;-2.246;2023-03-13T13:46:51;30.75;;;7.03;;
40717;SDS011;26405;51.850;-2.246;2023-03-13T13:49:35;29.45;;;7.35;;
40717;SDS011;26405;51.850;-2.246;2023-03-13T13:57:11;24.97;;;5.53;;
40717;SDS011;26405;51.850;-2.246;2023-03-13T13:59:43;21.77;;;5.18;;
40717;SDS011;26405;51.850;-2.246;2023-03-13T14:02:22;25.48;;;6.53;;
40717;SDS011;26405;51.850;-2.246;2023-03-13T14:05:34;24.50;;;6.05;;
40717;SDS011;26405;51.850;-2.246;2023-03-13T14:07:45;26.40;;;6.53;;
40717;SDS011;26405;51.850;-2.246;2023-03-13T14:12:44;25.73;;;6.38;;
40717;SDS011;26405;51.850;-2.246;2023-03-13T14:17:48;26.30;;;6.15;;
40717;SDS011;26405;51.850;-2.246;2023-03-13T14:22:46;23.40;;;6.03;;
40717;SDS011;26405;51.850;-2.246;2023-03-13T14:25:11;23.88;;;5.72;;
40717;SDS011;26405;51.850;-2.246;2023-03-13T14:27:41;25.75;;;6.35;;
40717;SDS011;26405;51.850;-2.246;2023-03-13T14:30:07;24.67;;;6.05;;
40717;SDS011;26405;51.850;-2.246;2023-03-13T14:32:35;24.25;;;5.90;;
40717;SDS011;26405;51.850;-2.246;2023-03-13T14:35:01;25.15;;;6.68;;
40717;SDS011;26405;51.850;-2.246;2023-03-13T14:37:33;25.98;;;5.95;;
40717;SDS011;26405;51.850;-2.246;2023-03-13T14:40:04;25.50;;;6.40;;
40717;SDS011;26405;51.850;-2.246;2023-03-13T14:42:36;25.30;;;6.47;;
40717;SDS011;26405;51.850;-2.246;2023-03-13T14:45:10;23.50;;;6.22;;
40717;SDS011;26405;51.850;-2.246;2023-03-13T14:47:36;25.15;;;5.60;;
40717;SDS011;26405;51.850;-2.246;2023-03-13T14:50:02;23.48;;;6.00;;
40717;SDS011;26405;51.850;-2.246;2023-03-13T14:52:29;26.15;;;6.25;;
40717;SDS011;26405;51.850;-2.246;2023-03-13T14:54:58;23.98;;;6.15;;
40717;SDS011;26405;51.850;-2.246;2023-03-13T14:57:28;28.30;;;6.93;;
40717;SDS011;26405;51.850;-2.246;2023-03-13T14:59:54;23.73;;;6.17;;
40717;SDS011;26405;51.850;-2.246;2023-03-13T15:02:39;22.40;;;6.32;;
40717;SDS011;26405;51.850;-2.246;2023-03-13T15:05:28;25.20;;;6.50;;
40717;SDS011;26405;51.850;-2.246;2023-03-13T15:07:52;25.92;;;6.32;;
40717;SDS011;26405;51.850;-2.246;2023-03-13T15:10:22;27.92;;;6.97;;
40717;SDS011;26405;51.850;-2.246;2023-03-13T15:12:48;27.50;;;6.60;;
40717;SDS011;26405;51.850;-2.246;2023-03-13T15:15:13;23.00;;;5.65;;
40717;SDS011;26405;51.850;-2.246;2023-03-13T15:17:39;24.60;;;5.90;;
40717;SDS011;26405;51.850;-2.246;2023-03-13T15:20:04;23.75;;;6.25;;
40717;SDS011;26405;51.850;-2.246;2023-03-13T15:22:33;23.38;;;5.68;;
40717;SDS011;26405;51.850;-2.246;2023-03-13T15:24:59;21.35;;;5.80;;
40717;SDS011;26405;51.850;-2.246;2023-03-13T15:27:25;21.98;;;5.53;;
40717;SDS011;26405;51.850;-2.246;2023-03-13T15:29:50;21.45;;;5.75;;
40717;SDS011;26405;51.850;-2.246;2023-03-13T15:32:26;25.30;;;5.95;;
40717;SDS011;26405;51.850;-2.246;2023-03-13T15:34:51;22.83;;;6.35;;
40717;SDS011;26405;51.850;-2.246;2023-03-13T15:37:17;25.15;;;6.40;;
40717;SDS011;26405;51.850;-2.246;2023-03-13T15:39:43;24.75;;;6.18;;
40717;SDS011;26405;51.850;-2.246;2023-03-13T15:42:08;26.20;;;6.63;;
40717;SDS011;26405;51.850;-2.246;2023-03-13T15:44:33;24.05;;;6.13;;
40717;SDS011;26405;51.850;-2.246;2023-03-13T15:46:59;27.23;;;7.22;;
40717;SDS011;26405;51.850;-2.246;2023-03-13T15:49:24;27.42;;;6.72;;
40717;SDS011;26405;51.850;-2.246;2023-03-13T15:51:49;26.98;;;6.70;;
40717;SDS011;26405;51.850;-2.246;2023-03-13T15:54:14;25.08;;;6.85;;
40717;SDS011;26405;51.850;-2.246;2023-03-13T15:56:40;24.80;;;6.20;;
40717;SDS011;26405;51.850;-2.246;2023-03-13T15:59:09;22.83;;;6.20;;
40717;SDS011;26405;51.850;-2.246;2023-03-13T16:01:35;27.85;;;7.43;;
40717;SDS011;26405;51.850;-2.246;2023-03-13T16:04:00;24.05;;;5.53;;
40717;SDS011;26405;51.850;-2.246;2023-03-13T16:06:25;22.77;;;5.20;;
40717;SDS011;26405;51.850;-2.246;2023-03-13T16:08:59;20.08;;;5.43;;
40717;SDS011;26405;51.850;-2.246;2023-03-13T16:11:24;19.08;;;5.15;;
40717;SDS011;26405;51.850;-2.246;2023-03-13T16:13:50;17.50;;;3.80;;
40717;SDS011;26405;51.850;-2.246;2023-03-13T16:16:28;15.50;;;4.45;;
40717;SDS011;26405;51.850;-2.246;2023-03-13T16:18:54;12.07;;;3.30;;